sensor_id;sensor_type;location;lat;lon;timestamp;temperature;humidity
13253;DHT22;6693;54.370;10.132;2022-08-01T00:01:30;23.70;99.90
13253;DHT22;6693;54.370;10.132;2022-08-01T00:03:32;22.90;99.90
13253;DHT22;6693;54.370;10.132;2022-08-01T00:05:35;24.20;99.90
13253;DHT22;6693;54.370;10.132;2022-08-01T00:07:37;22.90;99.90
13253;DHT22;6693;54.370;10.132;2022-08-01T00:09:38;22.90;99.90
13253;DHT22;6693;54.370;10.132;2022-08-01T00:11:40;22.90;99.90
13253;DHT22;6693;54.370;10.132;2022-08-01T00:13:42;24.50;99.90
13253;DHT22;6693;54.370;10.132;2022-08-01T00:15:44;24.00;99.90
13253;DHT22;6693;54.370;10.132;2022-08-01T00:17:46;24.10;99.90
13253;DHT22;6693;54.370;10.132;2022-08-01T00:19:48;23.50;99.90
13253;DHT22;6693;54.370;10.132;2022-08-01T00:21:51;23.10;99.90
13253;DHT22;6693;54.370;10.132;2022-08-01T00:23:53;22.80;99.90
13253;DHT22;6693;54.370;10.132;2022-08-01T00:25:55;22.90;99.90
13253;DHT22;6693;54.370;10.132;2022-08-01T00:27:57;23.00;99.90
13253;DHT22;6693;54.370;10.132;2022-08-01T00:29:59;23.60;99.90
13253;DHT22;6693;54.370;10.132;2022-08-01T00:32:00;24.00;99.90
13253;DHT22;6693;54.370;10.132;2022-08-01T00:34:02;22.90;99.90
13253;DHT22;6693;54.370;10.132;2022-08-01T00:36:04;23.00;99.90
13253;DHT22;6693;54.370;10.132;2022-08-01T00:38:07;22.90;99.90
13253;DHT22;6693;54.370;10.132;2022-08-01T00:40:09;23.50;99.90
13253;DHT22;6693;54.370;10.132;2022-08-01T00:42:12;22.80;99.90
13253;DHT22;6693;54.370;10.132;2022-08-01T00:44:14;22.80;99.90
13253;DHT22;6693;54.370;10.132;2022-08-01T00:46:15;22.90;99.90
13253;DHT22;6693;54.370;10.132;2022-08-01T00:48:17;22.90;99.90
13253;DHT22;6693;54.370;10.132;2022-08-01T00:50:19;22.70;99.90
13253;DHT22;6693;54.370;10.132;2022-08-01T00:52:20;23.00;99.90
13253;DHT22;6693;54.370;10.132;2022-08-01T00:54:24;22.60;99.90
13253;DHT22;6693;54.370;10.132;2022-08-01T00:56:27;22.70;99.90
13253;DHT22;6693;54.370;10.132;2022-08-01T00:58:29;22.70;99.90
13253;DHT22;6693;54.370;10.132;2022-08-01T01:00:34;22.70;99.90
13253;DHT22;6693;54.370;10.132;2022-08-01T01:02:36;22.70;99.90
13253;DHT22;6693;54.370;10.132;2022-08-01T01:04:37;22.70;99.90
13253;DHT22;6693;54.370;10.132;2022-08-01T01:06:44;24.10;99.90
13253;DHT22;6693;54.370;10.132;2022-08-01T01:08:56;23.40;99.90
13253;DHT22;6693;54.370;10.132;2022-08-01T01:11:08;22.80;99.90
13253;DHT22;6693;54.370;10.132;2022-08-01T01:13:18;22.80;99.90
13253;DHT22;6693;54.370;10.132;2022-08-01T01:15:23;23.00;99.90
13253;DHT22;6693;54.370;10.132;2022-08-01T01:17:32;22.80;99.90
13253;DHT22;6693;54.370;10.132;2022-08-01T01:19:41;22.70;99.90
13253;DHT22;6693;54.370;10.132;2022-08-01T01:22:00;22.80;99.90
13253;DHT22;6693;54.370;10.132;2022-08-01T01:24:12;22.80;99.90
13253;DHT22;6693;54.370;10.132;2022-08-01T01:26:26;22.90;99.90
13253;DHT22;6693;54.370;10.132;2022-08-01T01:28:34;22.90;99.90
13253;DHT22;6693;54.370;10.132;2022-08-01T01:30:39;22.70;99.90
13253;DHT22;6693;54.370;10.132;2022-08-01T01:32:45;22.80;99.90
13253;DHT22;6693;54.370;10.132;2022-08-01T01:34:50;22.80;99.90
13253;DHT22;6693;54.370;10.132;2022-08-01T01:36:57;22.80;99.90
13253;DHT22;6693;54.370;10.132;2022-08-01T01:39:00;24.00;99.90
13253;DHT22;6693;54.370;10.132;2022-08-01T01:41:03;23.30;99.90
13253;DHT22;6693;54.370;10.132;2022-08-01T01:43:09;22.80;99.90
13253;DHT22;6693;54.370;10.132;2022-08-01T01:45:12;22.90;99.90
13253;DHT22;6693;54.370;10.132;2022-08-01T01:47:17;22.80;99.90
13253;DHT22;6693;54.370;10.132;2022-08-01T01:49:20;22.80;99.90
13253;DHT22;6693;54.370;10.132;2022-08-01T01:51:24;23.50;99.90
13253;DHT22;6693;54.370;10.132;2022-08-01T01:53:28;22.70;99.90
13253;DHT22;6693;54.370;10.132;2022-08-01T01:55:31;22.80;99.90
13253;DHT22;6693;54.370;10.132;2022-08-01T01:57:37;22.80;99.90
13253;DHT22;6693;54.370;10.132;2022-08-01T01:59:39;22.80;99.90
13253;DHT22;6693;54.370;10.132;2022-08-01T02:01:42;22.80;99.90
13253;DHT22;6693;54.370;10.132;2022-08-01T02:03:47;22.80;99.90
13253;DHT22;6693;54.370;10.132;2022-08-01T02:05:51;22.80;99.90
13253;DHT22;6693;54.370;10.132;2022-08-01T02:07:54;23.80;99.90
13253;DHT22;6693;54.370;10.132;2022-08-01T02:09:56;22.80;99.90
13253;DHT22;6693;54.370;10.132;2022-08-01T02:12:00;24.40;99.90
13253;DHT22;6693;54.370;10.132;2022-08-01T02:14:03;22.90;99.90
13253;DHT22;6693;54.370;10.132;2022-08-01T02:16:06;24.20;99.90
13253;DHT22;6693;54.370;10.132;2022-08-01T02:18:09;23.30;99.90
13253;DHT22;6693;54.370;10.132;2022-08-01T02:20:14;22.80;99.90
13253;DHT22;6693;54.370;10.132;2022-08-01T02:22:19;22.90;99.90
13253;DHT22;6693;54.370;10.132;2022-08-01T02:24:30;22.90;99.90
13253;DHT22;6693;54.370;10.132;2022-08-01T02:26:34;24.20;99.90
13253;DHT22;6693;54.370;10.132;2022-08-01T02:28:41;22.90;99.90
13253;DHT22;6693;54.370;10.132;2022-08-01T02:30:47;22.70;99.90
13253;DHT22;6693;54.370;10.132;2022-08-01T02:32:53;22.70;99.90
13253;DHT22;6693;54.370;10.132;2022-08-01T02:35:01;22.70;99.90
13253;DHT22;6693;54.370;10.132;2022-08-01T02:37:05;23.80;99.90
13253;DHT22;6693;54.370;10.132;2022-08-01T02:39:09;22.60;99.90
13253;DHT22;6693;54.370;10.132;2022-08-01T02:41:14;22.70;99.90
13253;DHT22;6693;54.370;10.132;2022-08-01T02:43:20;22.60;99.90
13253;DHT22;6693;54.370;10.132;2022-08-01T02:45:25;23.10;99.90
13253;DHT22;6693;54.370;10.132;2022-08-01T02:47:29;22.70;99.90
13253;DHT22;6693;54.370;10.132;2022-08-01T02:49:35;22.70;99.90
13253;DHT22;6693;54.370;10.132;2022-08-01T02:51:39;22.70;99.90
13253;DHT22;6693;54.370;10.132;2022-08-01T02:53:44;22.70;99.90
13253;DHT22;6693;54.370;10.132;2022-08-01T02:55:48;22.60;99.90
13253;DHT22;6693;54.370;10.132;2022-08-01T02:57:51;23.40;99.90
13253;DHT22;6693;54.370;10.132;2022-08-01T02:59:56;23.80;99.90
13253;DHT22;6693;54.370;10.132;2022-08-01T03:02:00;22.50;99.90
13253;DHT22;6693;54.370;10.132;2022-08-01T03:04:03;22.50;99.90
13253;DHT22;6693;54.370;10.132;2022-08-01T03:06:06;22.40;99.90
13253;DHT22;6693;54.370;10.132;2022-08-01T03:08:10;22.40;99.90
13253;DHT22;6693;54.370;10.132;2022-08-01T03:10:14;22.50;99.90
13253;DHT22;6693;54.370;10.132;2022-08-01T03:12:20;22.80;99.90
13253;DHT22;6693;54.370;10.132;2022-08-01T03:14:24;22.50;99.90
13253;DHT22;6693;54.370;10.132;2022-08-01T03:16:27;22.90;99.90
13253;DHT22;6693;54.370;10.132;2022-08-01T03:18:30;22.60;99.90
13253;DHT22;6693;54.370;10.132;2022-08-01T03:20:33;22.60;99.90
13253;DHT22;6693;54.370;10.132;2022-08-01T03:22:36;22.70;99.90
13253;DHT22;6693;54.370;10.132;2022-08-01T03:24:39;22.60;99.90
13253;DHT22;6693;54.370;10.132;2022-08-01T03:26:43;23.40;99.90
13253;DHT22;6693;54.370;10.132;2022-08-01T03:28:46;22.70;99.90
13253;DHT22;6693;54.370;10.132;2022-08-01T03:30:50;22.60;99.90
13253;DHT22;6693;54.370;10.132;2022-08-01T03:32:52;23.60;99.90
13253;DHT22;6693;54.370;10.132;2022-08-01T03:34:54;22.50;99.90
13253;DHT22;6693;54.370;10.132;2022-08-01T03:37:01;22.50;99.90
13253;DHT22;6693;54.370;10.132;2022-08-01T03:39:06;22.50;99.90
13253;DHT22;6693;54.370;10.132;2022-08-01T03:41:13;22.40;99.90
13253;DHT22;6693;54.370;10.132;2022-08-01T03:43:22;23.10;99.90
13253;DHT22;6693;54.370;10.132;2022-08-01T03:45:26;22.50;99.90
13253;DHT22;6693;54.370;10.132;2022-08-01T03:47:31;22.50;99.90
13253;DHT22;6693;54.370;10.132;2022-08-01T03:49:37;22.50;99.90
13253;DHT22;6693;54.370;10.132;2022-08-01T03:51:42;22.30;99.90
13253;DHT22;6693;54.370;10.132;2022-08-01T03:53:45;23.40;99.90
13253;DHT22;6693;54.370;10.132;2022-08-01T03:55:49;22.30;99.90
13253;DHT22;6693;54.370;10.132;2022-08-01T03:57:51;22.40;99.90
13253;DHT22;6693;54.370;10.132;2022-08-01T03:59:55;22.30;99.90
13253;DHT22;6693;54.370;10.132;2022-08-01T04:01:58;22.40;99.90
13253;DHT22;6693;54.370;10.132;2022-08-01T04:04:00;22.20;99.90
13253;DHT22;6693;54.370;10.132;2022-08-01T04:06:03;22.80;99.90
13253;DHT22;6693;54.370;10.132;2022-08-01T04:08:05;22.30;99.90
13253;DHT22;6693;54.370;10.132;2022-08-01T04:10:07;22.40;99.90
13253;DHT22;6693;54.370;10.132;2022-08-01T04:12:09;22.30;99.90
13253;DHT22;6693;54.370;10.132;2022-08-01T04:14:11;22.40;99.90
13253;DHT22;6693;54.370;10.132;2022-08-01T04:16:13;22.30;99.90
13253;DHT22;6693;54.370;10.132;2022-08-01T04:18:15;22.40;99.90
13253;DHT22;6693;54.370;10.132;2022-08-01T04:20:17;23.50;99.90
13253;DHT22;6693;54.370;10.132;2022-08-01T04:22:19;22.60;99.90
13253;DHT22;6693;54.370;10.132;2022-08-01T04:24:22;21.70;99.90
13253;DHT22;6693;54.370;10.132;2022-08-01T04:26:26;23.40;99.90
13253;DHT22;6693;54.370;10.132;2022-08-01T04:28:29;23.30;99.90
13253;DHT22;6693;54.370;10.132;2022-08-01T04:30:34;21.30;99.90
13253;DHT22;6693;54.370;10.132;2022-08-01T04:32:39;22.40;99.90
13253;DHT22;6693;54.370;10.132;2022-08-01T04:34:44;22.50;99.90
13253;DHT22;6693;54.370;10.132;2022-08-01T04:36:48;22.00;99.90
13253;DHT22;6693;54.370;10.132;2022-08-01T04:38:58;24.00;99.90
13253;DHT22;6693;54.370;10.132;2022-08-01T04:41:02;21.40;99.90
13253;DHT22;6693;54.370;10.132;2022-08-01T04:43:07;22.40;99.90
13253;DHT22;6693;54.370;10.132;2022-08-01T04:45:09;23.50;99.90
13253;DHT22;6693;54.370;10.132;2022-08-01T04:47:13;22.40;99.90
13253;DHT22;6693;54.370;10.132;2022-08-01T04:49:16;22.90;99.90
13253;DHT22;6693;54.370;10.132;2022-08-01T04:51:18;22.70;99.90
13253;DHT22;6693;54.370;10.132;2022-08-01T04:53:22;22.40;99.90
13253;DHT22;6693;54.370;10.132;2022-08-01T04:55:24;22.50;99.90
13253;DHT22;6693;54.370;10.132;2022-08-01T04:57:25;22.70;99.90
13253;DHT22;6693;54.370;10.132;2022-08-01T04:59:27;22.50;99.90
13253;DHT22;6693;54.370;10.132;2022-08-01T05:01:41;22.50;99.90
13253;DHT22;6693;54.370;10.132;2022-08-01T05:03:43;22.40;99.90
13253;DHT22;6693;54.370;10.132;2022-08-01T05:05:46;23.00;99.90
13253;DHT22;6693;54.370;10.132;2022-08-01T05:07:47;24.10;99.90
13253;DHT22;6693;54.370;10.132;2022-08-01T05:09:49;23.00;99.90
13253;DHT22;6693;54.370;10.132;2022-08-01T05:11:51;22.50;99.90
13253;DHT22;6693;54.370;10.132;2022-08-01T05:13:53;22.60;99.90
13253;DHT22;6693;54.370;10.132;2022-08-01T05:15:54;22.80;99.90
13253;DHT22;6693;54.370;10.132;2022-08-01T05:17:56;23.70;99.90
13253;DHT22;6693;54.370;10.132;2022-08-01T05:19:58;23.80;99.90
13253;DHT22;6693;54.370;10.132;2022-08-01T05:22:02;22.50;99.90
13253;DHT22;6693;54.370;10.132;2022-08-01T05:24:05;22.60;99.90
13253;DHT22;6693;54.370;10.132;2022-08-01T05:26:07;22.60;99.90
13253;DHT22;6693;54.370;10.132;2022-08-01T05:28:08;23.70;99.90
13253;DHT22;6693;54.370;10.132;2022-08-01T05:30:10;22.70;99.90
13253;DHT22;6693;54.370;10.132;2022-08-01T05:32:12;22.70;99.90
13253;DHT22;6693;54.370;10.132;2022-08-01T05:34:14;22.80;99.90
13253;DHT22;6693;54.370;10.132;2022-08-01T05:36:15;23.20;99.90
13253;DHT22;6693;54.370;10.132;2022-08-01T05:38:18;22.70;99.90
13253;DHT22;6693;54.370;10.132;2022-08-01T05:40:20;23.80;99.90
13253;DHT22;6693;54.370;10.132;2022-08-01T05:42:22;22.80;99.90
13253;DHT22;6693;54.370;10.132;2022-08-01T05:44:23;24.10;99.90
13253;DHT22;6693;54.370;10.132;2022-08-01T05:46:25;22.90;99.90
13253;DHT22;6693;54.370;10.132;2022-08-01T05:48:27;23.40;99.90
13253;DHT22;6693;54.370;10.132;2022-08-01T05:50:29;23.90;99.90
13253;DHT22;6693;54.370;10.132;2022-08-01T05:52:30;22.80;99.90
13253;DHT22;6693;54.370;10.132;2022-08-01T05:54:33;22.70;99.90
13253;DHT22;6693;54.370;10.132;2022-08-01T05:56:35;24.30;99.90
13253;DHT22;6693;54.370;10.132;2022-08-01T05:58:37;22.90;99.90
13253;DHT22;6693;54.370;10.132;2022-08-01T06:00:38;23.30;99.90
13253;DHT22;6693;54.370;10.132;2022-08-01T06:02:41;24.20;99.90
13253;DHT22;6693;54.370;10.132;2022-08-01T06:04:43;22.80;99.90
13253;DHT22;6693;54.370;10.132;2022-08-01T06:06:45;23.70;99.90
13253;DHT22;6693;54.370;10.132;2022-08-01T06:08:47;22.70;99.90
13253;DHT22;6693;54.370;10.132;2022-08-01T06:10:50;22.60;99.90
13253;DHT22;6693;54.370;10.132;2022-08-01T06:12:51;22.70;99.90
13253;DHT22;6693;54.370;10.132;2022-08-01T06:14:53;23.80;99.90
13253;DHT22;6693;54.370;10.132;2022-08-01T06:16:55;22.80;99.90
13253;DHT22;6693;54.370;10.132;2022-08-01T06:18:56;23.70;99.90
13253;DHT22;6693;54.370;10.132;2022-08-01T06:20:59;23.70;99.90
13253;DHT22;6693;54.370;10.132;2022-08-01T06:23:01;22.80;99.90
13253;DHT22;6693;54.370;10.132;2022-08-01T06:25:03;23.40;99.90
13253;DHT22;6693;54.370;10.132;2022-08-01T06:27:06;22.70;99.90
13253;DHT22;6693;54.370;10.132;2022-08-01T06:29:08;23.70;99.90
13253;DHT22;6693;54.370;10.132;2022-08-01T06:31:10;22.60;99.90
13253;DHT22;6693;54.370;10.132;2022-08-01T06:33:13;23.60;99.90
13253;DHT22;6693;54.370;10.132;2022-08-01T06:35:15;22.70;99.90
13253;DHT22;6693;54.370;10.132;2022-08-01T06:37:17;22.30;99.90
13253;DHT22;6693;54.370;10.132;2022-08-01T06:39:19;22.50;99.90
13253;DHT22;6693;54.370;10.132;2022-08-01T06:41:29;22.40;99.90
13253;DHT22;6693;54.370;10.132;2022-08-01T06:43:30;22.40;99.90
13253;DHT22;6693;54.370;10.132;2022-08-01T06:45:32;22.80;99.90
13253;DHT22;6693;54.370;10.132;2022-08-01T06:47:34;23.00;99.90
13253;DHT22;6693;54.370;10.132;2022-08-01T06:49:36;22.30;99.90
13253;DHT22;6693;54.370;10.132;2022-08-01T06:51:37;22.20;99.90
13253;DHT22;6693;54.370;10.132;2022-08-01T06:53:39;22.30;99.90
13253;DHT22;6693;54.370;10.132;2022-08-01T06:55:41;22.10;99.90
13253;DHT22;6693;54.370;10.132;2022-08-01T06:57:49;22.10;99.90
13253;DHT22;6693;54.370;10.132;2022-08-01T06:59:50;22.10;99.90
13253;DHT22;6693;54.370;10.132;2022-08-01T07:01:52;22.10;99.90
13253;DHT22;6693;54.370;10.132;2022-08-01T07:03:54;22.10;99.90
13253;DHT22;6693;54.370;10.132;2022-08-01T07:05:55;22.10;99.90
13253;DHT22;6693;54.370;10.132;2022-08-01T07:07:57;22.10;99.90
13253;DHT22;6693;54.370;10.132;2022-08-01T07:09:59;22.10;99.90
13253;DHT22;6693;54.370;10.132;2022-08-01T07:12:01;22.10;99.90
13253;DHT22;6693;54.370;10.132;2022-08-01T07:14:04;22.20;99.90
13253;DHT22;6693;54.370;10.132;2022-08-01T07:16:06;22.20;99.90
13253;DHT22;6693;54.370;10.132;2022-08-01T07:18:07;22.30;99.90
13253;DHT22;6693;54.370;10.132;2022-08-01T07:20:11;22.90;99.90
13253;DHT22;6693;54.370;10.132;2022-08-01T07:22:13;22.30;99.90
13253;DHT22;6693;54.370;10.132;2022-08-01T07:24:16;22.40;99.90
13253;DHT22;6693;54.370;10.132;2022-08-01T07:26:18;22.50;99.90
13253;DHT22;6693;54.370;10.132;2022-08-01T07:28:20;22.70;99.90
13253;DHT22;6693;54.370;10.132;2022-08-01T07:30:23;22.80;99.90
13253;DHT22;6693;54.370;10.132;2022-08-01T07:32:24;22.20;99.90
13253;DHT22;6693;54.370;10.132;2022-08-01T07:34:26;23.00;99.90
13253;DHT22;6693;54.370;10.132;2022-08-01T07:36:28;22.70;99.90
13253;DHT22;6693;54.370;10.132;2022-08-01T07:38:30;22.60;99.90
13253;DHT22;6693;54.370;10.132;2022-08-01T07:40:31;20.90;99.90
13253;DHT22;6693;54.370;10.132;2022-08-01T07:42:33;22.90;99.90
13253;DHT22;6693;54.370;10.132;2022-08-01T07:44:35;23.30;99.90
13253;DHT22;6693;54.370;10.132;2022-08-01T07:46:38;23.20;99.90
13253;DHT22;6693;54.370;10.132;2022-08-01T07:48:39;23.00;99.90
13253;DHT22;6693;54.370;10.132;2022-08-01T07:50:41;23.00;99.90
13253;DHT22;6693;54.370;10.132;2022-08-01T07:52:43;23.00;99.90
13253;DHT22;6693;54.370;10.132;2022-08-01T07:54:44;23.40;99.90
13253;DHT22;6693;54.370;10.132;2022-08-01T07:56:46;23.20;99.90
13253;DHT22;6693;54.370;10.132;2022-08-01T07:58:48;23.40;99.90
13253;DHT22;6693;54.370;10.132;2022-08-01T08:00:49;23.50;99.90
13253;DHT22;6693;54.370;10.132;2022-08-01T08:02:52;23.40;99.90
13253;DHT22;6693;54.370;10.132;2022-08-01T08:04:54;23.20;99.90
13253;DHT22;6693;54.370;10.132;2022-08-01T08:06:55;23.30;99.90
13253;DHT22;6693;54.370;10.132;2022-08-01T08:08:57;23.10;99.90
13253;DHT22;6693;54.370;10.132;2022-08-01T08:10:59;23.20;99.90
13253;DHT22;6693;54.370;10.132;2022-08-01T08:13:01;23.30;99.90
13253;DHT22;6693;54.370;10.132;2022-08-01T08:15:03;23.40;99.90
13253;DHT22;6693;54.370;10.132;2022-08-01T08:17:06;23.50;99.90
13253;DHT22;6693;54.370;10.132;2022-08-01T08:19:09;23.70;99.90
13253;DHT22;6693;54.370;10.132;2022-08-01T08:21:10;23.70;1.00
13253;DHT22;6693;54.370;10.132;2022-08-01T08:23:12;23.90;1.00
13253;DHT22;6693;54.370;10.132;2022-08-01T08:25:31;24.00;99.90
13253;DHT22;6693;54.370;10.132;2022-08-01T08:27:35;24.00;1.00
13253;DHT22;6693;54.370;10.132;2022-08-01T08:29:37;24.00;99.90
13253;DHT22;6693;54.370;10.132;2022-08-01T08:31:38;24.00;99.90
13253;DHT22;6693;54.370;10.132;2022-08-01T08:33:40;24.00;1.00
13253;DHT22;6693;54.370;10.132;2022-08-01T08:35:43;24.10;1.00
13253;DHT22;6693;54.370;10.132;2022-08-01T08:37:45;24.20;1.00
13253;DHT22;6693;54.370;10.132;2022-08-01T08:39:46;24.30;1.00
13253;DHT22;6693;54.370;10.132;2022-08-01T08:41:48;24.40;99.90
13253;DHT22;6693;54.370;10.132;2022-08-01T08:43:50;24.60;75.50
13253;DHT22;6693;54.370;10.132;2022-08-01T08:45:52;24.40;1.00
13253;DHT22;6693;54.370;10.132;2022-08-01T08:47:54;24.40;1.00
13253;DHT22;6693;54.370;10.132;2022-08-01T08:49:57;24.50;1.00
13253;DHT22;6693;54.370;10.132;2022-08-01T08:52:02;24.60;1.00
13253;DHT22;6693;54.370;10.132;2022-08-01T08:54:04;25.00;1.00
13253;DHT22;6693;54.370;10.132;2022-08-01T08:56:08;24.90;1.00
13253;DHT22;6693;54.370;10.132;2022-08-01T08:58:12;24.80;99.90
13253;DHT22;6693;54.370;10.132;2022-08-01T09:00:15;25.90;99.90
13253;DHT22;6693;54.370;10.132;2022-08-01T09:02:16;24.90;99.90
13253;DHT22;6693;54.370;10.132;2022-08-01T09:04:18;25.00;99.90
13253;DHT22;6693;54.370;10.132;2022-08-01T09:06:22;25.00;20.40
13253;DHT22;6693;54.370;10.132;2022-08-01T09:08:25;25.20;1.00
13253;DHT22;6693;54.370;10.132;2022-08-01T09:10:26;25.30;1.00
13253;DHT22;6693;54.370;10.132;2022-08-01T09:12:28;25.40;1.00
13253;DHT22;6693;54.370;10.132;2022-08-01T09:14:29;25.60;1.00
13253;DHT22;6693;54.370;10.132;2022-08-01T09:16:32;25.10;1.00
13253;DHT22;6693;54.370;10.132;2022-08-01T09:18:35;25.20;1.00
13253;DHT22;6693;54.370;10.132;2022-08-01T09:20:37;24.60;1.00
13253;DHT22;6693;54.370;10.132;2022-08-01T09:22:38;25.20;1.00
13253;DHT22;6693;54.370;10.132;2022-08-01T09:24:41;25.30;99.90
13253;DHT22;6693;54.370;10.132;2022-08-01T09:26:43;26.10;99.90
13253;DHT22;6693;54.370;10.132;2022-08-01T09:28:47;25.30;99.90
13253;DHT22;6693;54.370;10.132;2022-08-01T09:30:49;25.50;99.90
13253;DHT22;6693;54.370;10.132;2022-08-01T09:32:55;25.70;99.90
13253;DHT22;6693;54.370;10.132;2022-08-01T09:34:58;25.70;99.90
13253;DHT22;6693;54.370;10.132;2022-08-01T09:37:30;25.90;96.50
13253;DHT22;6693;54.370;10.132;2022-08-01T09:39:33;26.10;1.00
13253;DHT22;6693;54.370;10.132;2022-08-01T09:41:38;26.20;1.00
13253;DHT22;6693;54.370;10.132;2022-08-01T09:43:40;26.60;1.00
13253;DHT22;6693;54.370;10.132;2022-08-01T09:45:48;26.60;1.00
13253;DHT22;6693;54.370;10.132;2022-08-01T09:47:50;26.50;1.00
13253;DHT22;6693;54.370;10.132;2022-08-01T09:49:54;26.70;1.00
13253;DHT22;6693;54.370;10.132;2022-08-01T09:51:57;26.50;1.00
13253;DHT22;6693;54.370;10.132;2022-08-01T09:53:59;26.00;1.00
13253;DHT22;6693;54.370;10.132;2022-08-01T09:56:08;26.10;1.00
13253;DHT22;6693;54.370;10.132;2022-08-01T09:58:12;26.60;1.00
13253;DHT22;6693;54.370;10.132;2022-08-01T10:00:17;26.80;99.90
13253;DHT22;6693;54.370;10.132;2022-08-01T10:02:31;26.60;99.90
13253;DHT22;6693;54.370;10.132;2022-08-01T10:04:33;26.40;99.90
13253;DHT22;6693;54.370;10.132;2022-08-01T10:06:35;26.10;81.30
13253;DHT22;6693;54.370;10.132;2022-08-01T10:08:45;26.10;35.50
13253;DHT22;6693;54.370;10.132;2022-08-01T10:11:06;26.00;1.00
13253;DHT22;6693;54.370;10.132;2022-08-01T10:13:08;26.20;1.00
13253;DHT22;6693;54.370;10.132;2022-08-01T10:15:15;26.00;1.00
13253;DHT22;6693;54.370;10.132;2022-08-01T10:17:19;26.10;1.00
13253;DHT22;6693;54.370;10.132;2022-08-01T10:19:22;25.90;1.00
13253;DHT22;6693;54.370;10.132;2022-08-01T10:21:24;25.90;1.00
13253;DHT22;6693;54.370;10.132;2022-08-01T10:23:29;25.80;1.00
13253;DHT22;6693;54.370;10.132;2022-08-01T10:25:35;24.40;1.00
13253;DHT22;6693;54.370;10.132;2022-08-01T10:27:37;25.90;1.00
13253;DHT22;6693;54.370;10.132;2022-08-01T10:29:42;26.90;1.00
13253;DHT22;6693;54.370;10.132;2022-08-01T10:31:46;26.20;1.00
13253;DHT22;6693;54.370;10.132;2022-08-01T10:33:48;26.90;1.00
13253;DHT22;6693;54.370;10.132;2022-08-01T10:35:51;26.90;1.00
13253;DHT22;6693;54.370;10.132;2022-08-01T10:37:53;26.90;1.00
13253;DHT22;6693;54.370;10.132;2022-08-01T10:39:58;26.80;1.00
13253;DHT22;6693;54.370;10.132;2022-08-01T10:42:01;26.90;1.00
13253;DHT22;6693;54.370;10.132;2022-08-01T10:44:03;27.20;1.00
13253;DHT22;6693;54.370;10.132;2022-08-01T10:46:05;26.00;99.90
13253;DHT22;6693;54.370;10.132;2022-08-01T10:48:12;27.30;99.90
13253;DHT22;6693;54.370;10.132;2022-08-01T10:50:21;27.40;99.90
13253;DHT22;6693;54.370;10.132;2022-08-01T10:52:24;27.60;99.90
13253;DHT22;6693;54.370;10.132;2022-08-01T10:54:26;28.00;99.90
13253;DHT22;6693;54.370;10.132;2022-08-01T10:56:39;27.90;99.90
13253;DHT22;6693;54.370;10.132;2022-08-01T10:58:42;28.10;99.90
13253;DHT22;6693;54.370;10.132;2022-08-01T11:00:44;28.40;99.90
13253;DHT22;6693;54.370;10.132;2022-08-01T11:02:57;28.60;99.90
13253;DHT22;6693;54.370;10.132;2022-08-01T11:05:07;28.60;99.90
13253;DHT22;6693;54.370;10.132;2022-08-01T11:07:16;28.20;53.90
13253;DHT22;6693;54.370;10.132;2022-08-01T11:09:28;27.80;1.00
13253;DHT22;6693;54.370;10.132;2022-08-01T11:11:31;27.60;1.00
13253;DHT22;6693;54.370;10.132;2022-08-01T11:14:00;27.70;1.00
13253;DHT22;6693;54.370;10.132;2022-08-01T11:16:25;28.00;1.00
13253;DHT22;6693;54.370;10.132;2022-08-01T11:18:32;28.00;1.00
13253;DHT22;6693;54.370;10.132;2022-08-01T11:20:35;28.40;1.00
13253;DHT22;6693;54.370;10.132;2022-08-01T11:25:26;27.30;1.00
13253;DHT22;6693;54.370;10.132;2022-08-01T11:27:30;27.50;1.00
13253;DHT22;6693;54.370;10.132;2022-08-01T11:29:32;26.30;1.00
13253;DHT22;6693;54.370;10.132;2022-08-01T11:31:34;28.10;1.00
13253;DHT22;6693;54.370;10.132;2022-08-01T11:33:53;28.10;1.00
13253;DHT22;6693;54.370;10.132;2022-08-01T11:36:18;28.40;1.00
13253;DHT22;6693;54.370;10.132;2022-08-01T11:38:24;28.60;1.00
13253;DHT22;6693;54.370;10.132;2022-08-01T11:40:28;28.80;1.00
13253;DHT22;6693;54.370;10.132;2022-08-01T11:42:30;28.60;1.00
13253;DHT22;6693;54.370;10.132;2022-08-01T11:44:48;27.90;1.00
13253;DHT22;6693;54.370;10.132;2022-08-01T11:46:55;27.60;1.00
13253;DHT22;6693;54.370;10.132;2022-08-01T11:49:24;27.60;1.00
13253;DHT22;6693;54.370;10.132;2022-08-01T11:51:27;27.90;1.00
13253;DHT22;6693;54.370;10.132;2022-08-01T11:53:30;28.20;1.00
13253;DHT22;6693;54.370;10.132;2022-08-01T11:55:34;28.40;1.00
13253;DHT22;6693;54.370;10.132;2022-08-01T11:57:36;28.60;1.00
13253;DHT22;6693;54.370;10.132;2022-08-01T11:59:40;29.10;1.00
13253;DHT22;6693;54.370;10.132;2022-08-01T12:01:46;28.70;1.00
13253;DHT22;6693;54.370;10.132;2022-08-01T12:03:55;27.90;1.00
13253;DHT22;6693;54.370;10.132;2022-08-01T12:05:57;28.20;1.00
13253;DHT22;6693;54.370;10.132;2022-08-01T12:08:00;27.90;99.90
13253;DHT22;6693;54.370;10.132;2022-08-01T12:10:04;27.80;99.90
13253;DHT22;6693;54.370;10.132;2022-08-01T12:12:07;27.70;99.90
13253;DHT22;6693;54.370;10.132;2022-08-01T12:14:15;27.50;99.90
13253;DHT22;6693;54.370;10.132;2022-08-01T12:16:16;27.20;99.90
13253;DHT22;6693;54.370;10.132;2022-08-01T12:18:18;26.90;99.90
13253;DHT22;6693;54.370;10.132;2022-08-01T12:20:21;27.20;99.90
13253;DHT22;6693;54.370;10.132;2022-08-01T12:22:24;27.40;99.90
13253;DHT22;6693;54.370;10.132;2022-08-01T12:24:27;27.50;99.90
13253;DHT22;6693;54.370;10.132;2022-08-01T12:26:39;28.00;99.90
13253;DHT22;6693;54.370;10.132;2022-08-01T12:28:41;27.90;99.90
13253;DHT22;6693;54.370;10.132;2022-08-01T12:30:43;28.20;99.90
13253;DHT22;6693;54.370;10.132;2022-08-01T12:32:46;28.10;99.90
13253;DHT22;6693;54.370;10.132;2022-08-01T12:34:48;28.30;99.90
13253;DHT22;6693;54.370;10.132;2022-08-01T12:36:50;28.50;99.90
13253;DHT22;6693;54.370;10.132;2022-08-01T12:38:52;28.80;99.90
13253;DHT22;6693;54.370;10.132;2022-08-01T12:40:55;29.20;99.90
13253;DHT22;6693;54.370;10.132;2022-08-01T12:43:00;29.40;99.90
13253;DHT22;6693;54.370;10.132;2022-08-01T12:45:03;29.80;99.90
13253;DHT22;6693;54.370;10.132;2022-08-01T12:47:06;28.80;99.90
13253;DHT22;6693;54.370;10.132;2022-08-01T12:49:08;29.00;99.90
13253;DHT22;6693;54.370;10.132;2022-08-01T12:51:11;29.00;99.90
13253;DHT22;6693;54.370;10.132;2022-08-01T12:53:13;29.20;99.90
13253;DHT22;6693;54.370;10.132;2022-08-01T12:55:16;28.70;99.90
13253;DHT22;6693;54.370;10.132;2022-08-01T12:57:23;28.80;99.90
13253;DHT22;6693;54.370;10.132;2022-08-01T12:59:26;28.80;99.90
13253;DHT22;6693;54.370;10.132;2022-08-01T13:01:29;29.00;99.90
13253;DHT22;6693;54.370;10.132;2022-08-01T13:03:30;29.20;99.90
13253;DHT22;6693;54.370;10.132;2022-08-01T13:05:41;29.40;99.90
13253;DHT22;6693;54.370;10.132;2022-08-01T13:07:48;29.50;99.90
13253;DHT22;6693;54.370;10.132;2022-08-01T13:09:51;29.50;99.90